createdAt,value
2022-10-06T00:00:00.248Z,1014
2022-10-06T00:05:00.333Z,1014
2022-10-06T00:10:00.321Z,1014
2022-10-06T00:15:00.231Z,1014
2022-10-06T00:20:00.347Z,1014
2022-10-06T00:25:00.233Z,1014
2022-10-06T00:30:00.289Z,1014
2022-10-06T00:35:00.146Z,1014
2022-10-06T00:40:00.324Z,1014
2022-10-06T00:45:00.297Z,1015
2022-10-06T00:50:00.281Z,1015
2022-10-06T00:55:00.213Z,1015
2022-10-06T01:00:00.237Z,1015
2022-10-06T01:05:00.143Z,1015
2022-10-06T01:10:00.287Z,1015
2022-10-06T01:15:00.219Z,1015
2022-10-06T01:20:00.350Z,1015
2022-10-06T01:25:00.205Z,1015
2022-10-06T01:30:00.206Z,1015
2022-10-06T01:35:00.141Z,1015
2022-10-06T01:40:00.255Z,1015
2022-10-06T01:45:00.157Z,1015
2022-10-06T01:50:00.267Z,1016
2022-10-06T01:55:00.216Z,1016
2022-10-06T02:00:00.241Z,1016
2022-10-06T02:05:00.224Z,1016
2022-10-06T02:10:00.234Z,1016
2022-10-06T02:15:00.224Z,1016
2022-10-06T02:20:00.266Z,1016
2022-10-06T02:25:00.203Z,1016
2022-10-06T02:30:00.273Z,1016
2022-10-06T02:35:00.275Z,1016
2022-10-06T02:40:00.247Z,1016
2022-10-06T02:45:00.211Z,1016
2022-10-06T02:50:00.477Z,1016
2022-10-06T02:55:00.228Z,1016
2022-10-06T03:00:00.280Z,1017
2022-10-06T03:05:00.228Z,1017
2022-10-06T03:10:00.235Z,1017
2022-10-06T03:15:00.198Z,1017
2022-10-06T03:20:00.295Z,1017
2022-10-06T03:25:00.253Z,1017
2022-10-06T03:30:00.284Z,1017
2022-10-06T03:35:00.253Z,1017
2022-10-06T03:40:00.238Z,1017
2022-10-06T03:45:00.260Z,1017
2022-10-06T03:50:00.281Z,1017
2022-10-06T03:55:00.231Z,1017
2022-10-06T04:00:00.288Z,1017
2022-10-06T04:05:00.253Z,1018
2022-10-06T04:10:00.274Z,1018
2022-10-06T04:15:00.454Z,1018
2022-10-06T04:20:00.300Z,1018
2022-10-06T04:25:00.279Z,1018
2022-10-06T04:30:00.295Z,1018
2022-10-06T04:35:00.257Z,1018
2022-10-06T04:40:00.268Z,1018
2022-10-06T04:45:00.239Z,1018
2022-10-06T04:50:00.449Z,1018
2022-10-06T04:55:00.238Z,1018
2022-10-06T05:00:05.486Z,1018
2022-10-06T05:05:00.283Z,1019
2022-10-06T05:10:00.230Z,1019
2022-10-06T05:15:00.290Z,1019
2022-10-06T05:20:00.263Z,1019
2022-10-06T05:25:00.281Z,1019
2022-10-06T05:30:00.331Z,1019
2022-10-06T05:35:00.257Z,1019
2022-10-06T05:40:00.245Z,1019
2022-10-06T05:45:00.281Z,1019
2022-10-06T05:50:00.300Z,1019
2022-10-06T05:55:00.239Z,1019
2022-10-06T06:00:00.321Z,1020
2022-10-06T06:05:00.200Z,1020
2022-10-06T06:10:00.246Z,1020
2022-10-06T06:15:00.242Z,1020
2022-10-06T06:20:00.276Z,1020
2022-10-06T06:25:00.242Z,1020
2022-10-06T06:30:00.304Z,1020
2022-10-06T06:35:00.223Z,1020
2022-10-06T06:40:00.272Z,1020
2022-10-06T06:45:00.288Z,1020
2022-10-06T06:50:00.360Z,1020
2022-10-06T06:55:00.238Z,1021
2022-10-06T07:00:00.311Z,1021
2022-10-06T07:05:00.234Z,1021
2022-10-06T07:10:00.266Z,1021
2022-10-06T07:15:00.266Z,1021
2022-10-06T07:20:00.291Z,1021
2022-10-06T07:25:00.251Z,1021
2022-10-06T07:30:00.252Z,1021
2022-10-06T07:35:00.191Z,1021
2022-10-06T07:40:00.243Z,1021
2022-10-06T07:45:00.190Z,1021
2022-10-06T07:50:00.278Z,1021
2022-10-06T07:55:00.194Z,1022
2022-10-06T08:00:03.191Z,1021
2022-10-06T08:05:00.197Z,1022
2022-10-06T08:10:00.289Z,1022
2022-10-06T08:15:04.513Z,1022
2022-10-06T08:20:00.284Z,1022
2022-10-06T08:25:08.521Z,1022
2022-10-06T08:30:00.334Z,1022
2022-10-06T08:35:00.319Z,1022
2022-10-06T08:40:00.255Z,1022
2022-10-06T08:45:00.237Z,1022
2022-10-06T08:50:00.273Z,1022
2022-10-06T08:55:00.253Z,1022
2022-10-06T09:00:00.345Z,1022
2022-10-06T09:05:00.250Z,1022
2022-10-06T09:10:00.286Z,1022
2022-10-06T09:15:00.239Z,1022
2022-10-06T09:20:00.267Z,1022
2022-10-06T09:25:00.423Z,1022
2022-10-06T09:30:00.281Z,1023
2022-10-06T09:35:00.251Z,1023
2022-10-06T09:40:00.285Z,1022
2022-10-06T09:45:00.218Z,1023
2022-10-06T09:50:00.256Z,1023
2022-10-06T09:55:00.271Z,1023
2022-10-06T10:00:00.460Z,1023
2022-10-06T10:05:00.282Z,1023
2022-10-06T10:10:00.269Z,1023
2022-10-06T10:15:00.295Z,1023
2022-10-06T10:20:00.660Z,1023
2022-10-06T10:25:00.240Z,1023
2022-10-06T10:30:00.326Z,1023
2022-10-06T10:35:00.569Z,1023
2022-10-06T10:40:00.266Z,1023
2022-10-06T10:45:00.399Z,1023
2022-10-06T10:50:00.272Z,1023
2022-10-06T10:55:00.595Z,1023
2022-10-06T11:00:00.278Z,1023
2022-10-06T11:05:00.796Z,1023
2022-10-06T11:10:00.297Z,1023
2022-10-06T11:15:00.796Z,1023
2022-10-06T11:20:00.284Z,1023
2022-10-06T11:25:00.627Z,1023
2022-10-06T11:30:00.645Z,1023
2022-10-06T11:35:00.265Z,1023
2022-10-06T11:40:00.769Z,1023
2022-10-06T11:45:00.736Z,1023
2022-10-06T11:50:00.263Z,1023
2022-10-06T11:55:00.807Z,1023
2022-10-06T12:00:00.315Z,1023
2022-10-06T12:05:00.684Z,1023
2022-10-06T12:10:00.324Z,1023
2022-10-06T12:20:00.271Z,1023
2022-10-06T12:25:00.795Z,1023
2022-10-06T12:30:00.934Z,1023
2022-10-06T12:35:00.811Z,1023
2022-10-06T12:40:00.310Z,1023
2022-10-06T12:45:00.884Z,1023
2022-10-06T12:50:00.325Z,1023
2022-10-06T12:55:00.845Z,1023
2022-10-06T13:00:00.274Z,1023
2022-10-06T13:05:00.754Z,1023
2022-10-06T13:10:00.263Z,1023
2022-10-06T13:15:00.615Z,1023
2022-10-06T13:20:00.858Z,1023
2022-10-06T13:25:00.246Z,1023
2022-10-06T13:30:00.868Z,1023
2022-10-06T13:35:00.772Z,1023
2022-10-06T13:40:00.851Z,1023
2022-10-06T13:45:00.254Z,1023
2022-10-06T13:50:00.537Z,1023
2022-10-06T13:55:00.664Z,1023
2022-10-06T14:00:00.854Z,1023
2022-10-06T14:05:00.889Z,1023
2022-10-06T14:10:00.270Z,1023
2022-10-06T14:15:00.886Z,1023
2022-10-06T14:20:00.884Z,1023
2022-10-06T14:25:00.295Z,1023
2022-10-06T14:30:00.771Z,1023
2022-10-06T14:35:00.263Z,1023
2022-10-06T14:40:00.782Z,1023
2022-10-06T14:45:00.664Z,1022
2022-10-06T14:50:00.412Z,1023
2022-10-06T14:55:00.797Z,1023
2022-10-06T15:00:00.897Z,1023
2022-10-06T15:05:00.247Z,1023
2022-10-06T15:10:00.299Z,1023
2022-10-06T15:15:00.258Z,1023
2022-10-06T15:20:00.270Z,1022
2022-10-06T15:25:00.252Z,1022
2022-10-06T15:30:00.323Z,1022
2022-10-06T15:35:00.243Z,1022
2022-10-06T15:40:00.285Z,1022
2022-10-06T15:45:03.890Z,1022
2022-10-06T15:50:00.314Z,1022
2022-10-06T15:55:00.245Z,1023
2022-10-06T16:00:00.342Z,1022
2022-10-06T16:05:00.263Z,1022
2022-10-06T16:10:00.232Z,1022
2022-10-06T16:15:00.244Z,1022
2022-10-06T16:20:00.271Z,1023
2022-10-06T16:25:00.292Z,1023
2022-10-06T16:30:00.330Z,1022
2022-10-06T16:35:00.235Z,1022
2022-10-06T16:40:00.278Z,1022
2022-10-06T16:45:00.255Z,1023
2022-10-06T16:50:00.289Z,1023
2022-10-06T16:55:00.266Z,1023
2022-10-06T17:00:00.358Z,1023
2022-10-06T17:05:00.290Z,1023
2022-10-06T17:10:19.502Z,1023
2022-10-06T17:15:00.243Z,1023
2022-10-06T17:20:00.300Z,1023
2022-10-06T17:25:00.235Z,1022
2022-10-06T17:30:00.326Z,1023
2022-10-06T17:35:00.249Z,1023
2022-10-06T17:40:00.281Z,1023
2022-10-06T17:45:00.280Z,1023
2022-10-06T17:50:00.331Z,1023
2022-10-06T17:55:00.245Z,1023
2022-10-06T18:00:00.303Z,1023
2022-10-06T18:05:00.223Z,1023
2022-10-06T18:10:00.313Z,1023
2022-10-06T18:15:00.264Z,1023
2022-10-06T18:20:00.297Z,1023
2022-10-06T18:25:00.281Z,1023
2022-10-06T18:30:00.328Z,1023
2022-10-06T18:36:12.117Z,1023
2022-10-06T18:40:00.285Z,1023
2022-10-06T18:45:00.243Z,1023
2022-10-06T18:50:00.311Z,1023
2022-10-06T18:55:00.244Z,1023
2022-10-06T19:00:00.308Z,1023
2022-10-06T19:05:00.314Z,1023
2022-10-06T19:10:00.292Z,1023
2022-10-06T19:15:00.260Z,1023
2022-10-06T19:20:00.292Z,1023
2022-10-06T19:25:00.265Z,1023
2022-10-06T19:30:00.320Z,1023
2022-10-06T19:35:00.478Z,1023
2022-10-06T19:40:00.296Z,1023
2022-10-06T19:45:00.272Z,1023
2022-10-06T19:50:04.677Z,1023
2022-10-06T19:55:00.248Z,1023
2022-10-06T20:00:00.302Z,1023
2022-10-06T20:05:00.255Z,1023
2022-10-06T20:10:00.279Z,1023
2022-10-06T20:15:00.290Z,1023
2022-10-06T20:20:00.277Z,1023
2022-10-06T20:25:00.302Z,1023
2022-10-06T20:30:00.340Z,1023
2022-10-06T20:35:00.249Z,1023
2022-10-06T20:40:00.342Z,1023
2022-10-06T20:45:00.329Z,1023
2022-10-06T20:50:00.288Z,1023
2022-10-06T20:55:00.260Z,1023
2022-10-06T21:00:00.290Z,1023
2022-10-06T21:05:00.243Z,1023
2022-10-06T21:10:00.263Z,1023
2022-10-06T21:15:00.216Z,1023
2022-10-06T21:20:00.255Z,1023
2022-10-06T21:25:00.278Z,1023
2022-10-06T21:30:00.257Z,1023
2022-10-06T21:35:00.210Z,1023
2022-10-06T21:40:02.551Z,1023
2022-10-06T21:45:00.276Z,1022
2022-10-06T21:50:00.231Z,1022
2022-10-06T21:55:00.206Z,1023
2022-10-06T22:00:00.346Z,1022
2022-10-06T22:05:00.249Z,1022
2022-10-06T22:10:00.279Z,1022
2022-10-06T22:15:00.181Z,1022
2022-10-06T22:20:00.254Z,1022
2022-10-06T22:25:00.163Z,1022
2022-10-06T22:30:00.250Z,1022
2022-10-06T22:35:00.217Z,1022
2022-10-06T22:40:04.118Z,1022
2022-10-06T22:45:00.231Z,1022
2022-10-06T22:50:00.280Z,1022
2022-10-06T22:55:00.184Z,1022
2022-10-06T23:00:00.238Z,1022
2022-10-06T23:05:00.209Z,1022
2022-10-06T23:10:00.281Z,1022
2022-10-06T23:15:00.182Z,1022
2022-10-06T23:20:00.247Z,1022
2022-10-06T23:25:00.260Z,1022
2022-10-06T23:30:00.265Z,1022
2022-10-06T23:35:00.224Z,1022
2022-10-06T23:40:00.243Z,1022
2022-10-06T23:45:00.207Z,1021
2022-10-06T23:50:00.194Z,1021
2022-10-06T23:55:00.268Z,1021
